sensor_id;sensor_type;location;lat;lon;timestamp;pressure;altitude;pressure_sealevel;temperature;humidity
62524;BME280;53689;56.878;60.672;2023-05-02T00:02:01;98761.53;;;23.42;17.91
62524;BME280;53689;56.878;60.672;2023-05-02T00:04:29;98753.81;;;23.39;17.70
62524;BME280;53689;56.878;60.672;2023-05-02T00:06:57;98757.56;;;23.38;17.13
62524;BME280;53689;56.878;60.672;2023-05-02T00:09:24;98758.19;;;23.40;17.64
62524;BME280;53689;56.878;60.672;2023-05-02T00:11:52;98756.09;;;23.36;17.95
62524;BME280;53689;56.878;60.672;2023-05-02T00:14:21;98763.59;;;23.40;17.63
62524;BME280;53689;56.878;60.672;2023-05-02T00:16:48;98767.94;;;23.35;17.58
62524;BME280;53689;56.878;60.672;2023-05-02T00:19:15;98757.59;;;23.45;17.57
62524;BME280;53689;56.878;60.672;2023-05-02T00:21:42;98764.00;;;23.37;19.31
62524;BME280;53689;56.878;60.672;2023-05-02T00:24:09;98766.06;;;23.35;17.71
62524;BME280;53689;56.878;60.672;2023-05-02T00:26:36;98760.22;;;23.32;17.90
62524;BME280;53689;56.878;60.672;2023-05-02T00:29:03;98773.16;;;23.36;17.65
62524;BME280;53689;56.878;60.672;2023-05-02T00:31:33;98770.19;;;23.31;18.13
62524;BME280;53689;56.878;60.672;2023-05-02T00:34:00;98766.44;;;23.32;17.38
62524;BME280;53689;56.878;60.672;2023-05-02T00:36:27;98767.34;;;23.39;18.02
62524;BME280;53689;56.878;60.672;2023-05-02T00:38:55;98778.78;;;23.41;17.29
62524;BME280;53689;56.878;60.672;2023-05-02T00:41:22;98774.22;;;23.42;18.19
62524;BME280;53689;56.878;60.672;2023-05-02T00:43:49;98762.34;;;23.36;19.00
62524;BME280;53689;56.878;60.672;2023-05-02T00:46:16;98769.00;;;23.40;18.12
62524;BME280;53689;56.878;60.672;2023-05-02T00:48:45;98762.63;;;23.26;18.34
62524;BME280;53689;56.878;60.672;2023-05-02T00:51:12;98767.59;;;23.23;18.67
62524;BME280;53689;56.878;60.672;2023-05-02T00:53:40;98763.13;;;23.30;18.04
62524;BME280;53689;56.878;60.672;2023-05-02T00:56:07;98759.00;;;23.34;17.59
62524;BME280;53689;56.878;60.672;2023-05-02T00:58:34;98760.00;;;23.33;17.82
62524;BME280;53689;56.878;60.672;2023-05-02T01:01:06;98753.59;;;23.34;18.16
62524;BME280;53689;56.878;60.672;2023-05-02T01:03:38;98749.88;;;23.35;18.21
62524;BME280;53689;56.878;60.672;2023-05-02T01:06:14;98744.31;;;23.22;17.92
62524;BME280;53689;56.878;60.672;2023-05-02T01:08:46;98737.97;;;22.79;18.56
62524;BME280;53689;56.878;60.672;2023-05-02T01:11:17;98737.16;;;23.07;18.57
62524;BME280;53689;56.878;60.672;2023-05-02T01:13:49;98734.47;;;23.07;18.44
62524;BME280;53689;56.878;60.672;2023-05-02T01:16:19;98736.69;;;22.97;19.32
62524;BME280;53689;56.878;60.672;2023-05-02T01:18:48;98734.88;;;22.82;18.42
62524;BME280;53689;56.878;60.672;2023-05-02T01:21:17;98728.19;;;23.00;18.97
62524;BME280;53689;56.878;60.672;2023-05-02T01:23:45;98729.47;;;23.33;18.48
62524;BME280;53689;56.878;60.672;2023-05-02T01:26:21;98721.00;;;23.42;17.86
62524;BME280;53689;56.878;60.672;2023-05-02T01:28:58;98723.22;;;23.32;18.95
62524;BME280;53689;56.878;60.672;2023-05-02T01:31:28;98731.31;;;23.32;18.52
62524;BME280;53689;56.878;60.672;2023-05-02T01:33:56;98722.59;;;23.30;18.91
62524;BME280;53689;56.878;60.672;2023-05-02T01:36:26;98734.88;;;23.33;18.13
62524;BME280;53689;56.878;60.672;2023-05-02T01:38:54;98740.22;;;23.26;18.58
62524;BME280;53689;56.878;60.672;2023-05-02T01:41:21;98722.97;;;23.27;19.50
62524;BME280;53689;56.878;60.672;2023-05-02T01:43:51;98718.97;;;23.23;18.28
62524;BME280;53689;56.878;60.672;2023-05-02T01:46:21;98720.69;;;23.24;17.82
62524;BME280;53689;56.878;60.672;2023-05-02T01:48:49;98720.00;;;23.22;19.43
62524;BME280;53689;56.878;60.672;2023-05-02T01:51:18;98716.50;;;23.21;20.12
62524;BME280;53689;56.878;60.672;2023-05-02T01:53:47;98717.13;;;23.23;19.57
62524;BME280;53689;56.878;60.672;2023-05-02T01:56:15;98710.06;;;23.22;19.74
62524;BME280;53689;56.878;60.672;2023-05-02T01:58:44;98708.16;;;23.23;18.71
62524;BME280;53689;56.878;60.672;2023-05-02T02:01:13;98701.53;;;23.25;19.34
62524;BME280;53689;56.878;60.672;2023-05-02T02:03:42;98709.69;;;22.97;20.08
62524;BME280;53689;56.878;60.672;2023-05-02T02:06:10;98715.34;;;23.09;19.27
62524;BME280;53689;56.878;60.672;2023-05-02T02:08:38;98712.66;;;23.09;19.85
62524;BME280;53689;56.878;60.672;2023-05-02T02:11:07;98710.22;;;23.14;18.26
62524;BME280;53689;56.878;60.672;2023-05-02T02:13:36;98717.38;;;23.28;18.72
62524;BME280;53689;56.878;60.672;2023-05-02T02:16:05;98715.38;;;23.37;18.33
62524;BME280;53689;56.878;60.672;2023-05-02T02:18:36;98717.91;;;23.46;19.00
62524;BME280;53689;56.878;60.672;2023-05-02T02:21:06;98710.03;;;23.51;18.88
62524;BME280;53689;56.878;60.672;2023-05-02T02:23:35;98710.03;;;23.51;18.37
62524;BME280;53689;56.878;60.672;2023-05-02T02:26:02;98716.69;;;23.48;19.19
62524;BME280;53689;56.878;60.672;2023-05-02T02:28:30;98715.13;;;23.67;19.13
62524;BME280;53689;56.878;60.672;2023-05-02T02:30:57;98719.41;;;23.48;18.66
62524;BME280;53689;56.878;60.672;2023-05-02T02:33:26;98724.59;;;23.56;18.36
62524;BME280;53689;56.878;60.672;2023-05-02T02:35:57;98725.00;;;23.47;18.18
62524;BME280;53689;56.878;60.672;2023-05-02T02:38:30;98722.47;;;23.45;17.96
62524;BME280;53689;56.878;60.672;2023-05-02T02:41:05;98722.03;;;23.41;19.82
62524;BME280;53689;56.878;60.672;2023-05-02T02:43:39;98720.84;;;23.51;17.90
62524;BME280;53689;56.878;60.672;2023-05-02T02:46:10;98721.41;;;23.39;19.82
62524;BME280;53689;56.878;60.672;2023-05-02T02:48:42;98726.03;;;23.46;19.07
62524;BME280;53689;56.878;60.672;2023-05-02T02:51:19;98735.19;;;23.51;17.95
62524;BME280;53689;56.878;60.672;2023-05-02T02:53:52;98734.94;;;23.46;18.15
62524;BME280;53689;56.878;60.672;2023-05-02T02:56:25;98735.91;;;23.67;17.79
62524;BME280;53689;56.878;60.672;2023-05-02T02:58:54;98736.75;;;23.67;18.20
62524;BME280;53689;56.878;60.672;2023-05-02T03:01:23;98735.00;;;23.53;18.06
62524;BME280;53689;56.878;60.672;2023-05-02T03:03:53;98738.41;;;23.68;18.29
62524;BME280;53689;56.878;60.672;2023-05-02T03:06:21;98735.38;;;23.50;18.48
62524;BME280;53689;56.878;60.672;2023-05-02T03:08:52;98738.66;;;23.38;19.65
62524;BME280;53689;56.878;60.672;2023-05-02T03:11:26;98739.16;;;23.55;18.55
62524;BME280;53689;56.878;60.672;2023-05-02T03:13:56;98740.41;;;23.53;19.49
62524;BME280;53689;56.878;60.672;2023-05-02T03:16:34;98747.41;;;23.47;18.83
62524;BME280;53689;56.878;60.672;2023-05-02T03:19:04;98751.16;;;23.46;19.12
62524;BME280;53689;56.878;60.672;2023-05-02T03:21:32;98752.16;;;23.74;18.73
62524;BME280;53689;56.878;60.672;2023-05-02T03:24:09;98756.63;;;23.53;18.14
62524;BME280;53689;56.878;60.672;2023-05-02T03:26:37;98762.81;;;23.47;19.94
62524;BME280;53689;56.878;60.672;2023-05-02T03:29:07;98750.66;;;23.29;21.00
62524;BME280;53689;56.878;60.672;2023-05-02T03:31:38;98749.47;;;22.44;21.15
62524;BME280;53689;56.878;60.672;2023-05-02T03:34:06;98741.72;;;22.20;20.88
62524;BME280;53689;56.878;60.672;2023-05-02T03:36:34;98737.75;;;22.00;21.51
62524;BME280;53689;56.878;60.672;2023-05-02T03:39:01;98749.34;;;22.16;21.61
62524;BME280;53689;56.878;60.672;2023-05-02T03:41:30;98754.56;;;22.17;21.39
62524;BME280;53689;56.878;60.672;2023-05-02T03:44:05;98748.94;;;21.82;21.50
62524;BME280;53689;56.878;60.672;2023-05-02T03:46:32;98750.88;;;22.03;22.20
62524;BME280;53689;56.878;60.672;2023-05-02T03:49:03;98740.94;;;21.89;21.63
62524;BME280;53689;56.878;60.672;2023-05-02T03:51:31;98738.41;;;21.57;21.34
62524;BME280;53689;56.878;60.672;2023-05-02T03:53:59;98737.97;;;21.54;21.31
62524;BME280;53689;56.878;60.672;2023-05-02T03:56:26;98740.56;;;21.62;21.65
62524;BME280;53689;56.878;60.672;2023-05-02T03:59:16;98737.03;;;21.46;20.82
62524;BME280;53689;56.878;60.672;2023-05-02T04:01:43;98736.75;;;21.71;20.64
62524;BME280;53689;56.878;60.672;2023-05-02T04:04:13;98735.47;;;21.52;21.61
62524;BME280;53689;56.878;60.672;2023-05-02T04:06:45;98733.41;;;21.54;21.19
62524;BME280;53689;56.878;60.672;2023-05-02T04:09:15;98736.28;;;21.53;21.13
62524;BME280;53689;56.878;60.672;2023-05-02T04:11:50;98740.94;;;21.74;22.07
62524;BME280;53689;56.878;60.672;2023-05-02T04:14:19;98736.13;;;21.69;21.35
62524;BME280;53689;56.878;60.672;2023-05-02T04:16:49;98731.34;;;21.56;22.25
62524;BME280;53689;56.878;60.672;2023-05-02T04:19:25;98735.16;;;21.62;22.68
62524;BME280;53689;56.878;60.672;2023-05-02T04:21:52;98735.84;;;21.49;22.37
62524;BME280;53689;56.878;60.672;2023-05-02T04:24:20;98734.28;;;21.70;22.30
62524;BME280;53689;56.878;60.672;2023-05-02T04:26:47;98729.34;;;21.58;21.66
62524;BME280;53689;56.878;60.672;2023-05-02T04:29:14;98727.31;;;21.75;21.74
62524;BME280;53689;56.878;60.672;2023-05-02T04:31:43;98730.34;;;21.42;22.57
62524;BME280;53689;56.878;60.672;2023-05-02T04:34:13;98723.91;;;21.43;22.58
62524;BME280;53689;56.878;60.672;2023-05-02T04:36:44;98727.56;;;21.51;22.43
62524;BME280;53689;56.878;60.672;2023-05-02T04:39:13;98725.88;;;21.49;22.58
62524;BME280;53689;56.878;60.672;2023-05-02T04:41:49;98730.25;;;21.51;22.24
62524;BME280;53689;56.878;60.672;2023-05-02T04:44:18;98719.38;;;21.59;22.15
62524;BME280;53689;56.878;60.672;2023-05-02T04:46:47;98724.75;;;21.89;22.51
62524;BME280;53689;56.878;60.672;2023-05-02T04:49:14;98731.19;;;21.58;22.75
62524;BME280;53689;56.878;60.672;2023-05-02T04:51:43;98731.28;;;21.49;24.04
62524;BME280;53689;56.878;60.672;2023-05-02T04:54:12;98724.31;;;21.55;23.63
62524;BME280;53689;56.878;60.672;2023-05-02T04:56:41;98733.63;;;21.68;22.90
62524;BME280;53689;56.878;60.672;2023-05-02T04:59:09;98730.16;;;21.59;23.13
62524;BME280;53689;56.878;60.672;2023-05-02T05:01:36;98733.97;;;21.80;22.69
62524;BME280;53689;56.878;60.672;2023-05-02T05:04:07;98730.94;;;21.83;22.81
62524;BME280;53689;56.878;60.672;2023-05-02T05:06:35;98722.72;;;21.46;22.45
62524;BME280;53689;56.878;60.672;2023-05-02T05:09:02;98724.03;;;21.50;22.95
62524;BME280;53689;56.878;60.672;2023-05-02T05:11:32;98732.47;;;21.62;23.04
62524;BME280;53689;56.878;60.672;2023-05-02T05:14:00;98721.72;;;21.77;22.50
62524;BME280;53689;56.878;60.672;2023-05-02T05:16:28;98720.25;;;22.11;22.52
62524;BME280;53689;56.878;60.672;2023-05-02T05:18:56;98718.69;;;22.02;22.27
62524;BME280;53689;56.878;60.672;2023-05-02T05:21:25;98721.25;;;21.88;22.97
62524;BME280;53689;56.878;60.672;2023-05-02T05:23:54;98722.88;;;22.04;22.56
62524;BME280;53689;56.878;60.672;2023-05-02T05:26:26;98723.03;;;22.18;22.56
62524;BME280;53689;56.878;60.672;2023-05-02T05:28:54;98717.94;;;22.08;22.71
62524;BME280;53689;56.878;60.672;2023-05-02T05:31:23;98717.06;;;21.86;22.71
62524;BME280;53689;56.878;60.672;2023-05-02T05:33:55;98719.03;;;22.14;22.66
62524;BME280;53689;56.878;60.672;2023-05-02T05:36:25;98717.22;;;22.36;22.54
62524;BME280;53689;56.878;60.672;2023-05-02T05:38:52;98731.78;;;22.42;22.19
62524;BME280;53689;56.878;60.672;2023-05-02T05:41:20;98726.63;;;22.25;22.36
62524;BME280;53689;56.878;60.672;2023-05-02T05:43:53;98725.00;;;22.09;22.56
62524;BME280;53689;56.878;60.672;2023-05-02T05:46:22;98722.47;;;22.44;22.57
62524;BME280;53689;56.878;60.672;2023-05-02T05:48:50;98724.22;;;22.30;22.88
62524;BME280;53689;56.878;60.672;2023-05-02T05:51:17;98719.88;;;22.14;23.04
62524;BME280;53689;56.878;60.672;2023-05-02T05:53:48;98723.63;;;21.98;22.99
62524;BME280;53689;56.878;60.672;2023-05-02T05:56:15;98720.22;;;21.89;22.88
62524;BME280;53689;56.878;60.672;2023-05-02T05:58:50;98717.97;;;21.93;23.46
62524;BME280;53689;56.878;60.672;2023-05-02T06:01:19;98715.66;;;21.90;22.72
62524;BME280;53689;56.878;60.672;2023-05-02T06:03:47;98719.91;;;21.99;23.12
62524;BME280;53689;56.878;60.672;2023-05-02T06:06:16;98723.53;;;22.28;22.50
62524;BME280;53689;56.878;60.672;2023-05-02T06:08:43;98715.38;;;21.85;22.98
62524;BME280;53689;56.878;60.672;2023-05-02T06:11:12;98720.81;;;22.07;22.65
62524;BME280;53689;56.878;60.672;2023-05-02T06:13:39;98725.56;;;22.04;23.18
62524;BME280;53689;56.878;60.672;2023-05-02T06:16:07;98722.59;;;22.36;23.30
62524;BME280;53689;56.878;60.672;2023-05-02T06:18:34;98717.84;;;22.38;23.40
62524;BME280;53689;56.878;60.672;2023-05-02T06:21:04;98714.19;;;22.46;22.48
62524;BME280;53689;56.878;60.672;2023-05-02T06:23:31;98722.28;;;22.46;22.63
62524;BME280;53689;56.878;60.672;2023-05-02T06:25:59;98715.97;;;22.54;22.68
62524;BME280;53689;56.878;60.672;2023-05-02T06:28:28;98711.72;;;22.66;22.96
62524;BME280;53689;56.878;60.672;2023-05-02T06:30:56;98707.28;;;22.58;22.93
62524;BME280;53689;56.878;60.672;2023-05-02T06:33:23;98710.44;;;22.47;22.75
62524;BME280;53689;56.878;60.672;2023-05-02T06:35:51;98717.78;;;22.75;21.85
62524;BME280;53689;56.878;60.672;2023-05-02T06:38:18;98713.81;;;22.71;23.07
62524;BME280;53689;56.878;60.672;2023-05-02T06:40:46;98716.34;;;22.36;23.28
62524;BME280;53689;56.878;60.672;2023-05-02T06:43:13;98724.97;;;22.46;23.37
62524;BME280;53689;56.878;60.672;2023-05-02T06:45:42;98720.28;;;22.33;23.35
62524;BME280;53689;56.878;60.672;2023-05-02T06:48:09;98715.59;;;22.20;23.75
62524;BME280;53689;56.878;60.672;2023-05-02T06:50:36;98713.03;;;22.34;23.99
62524;BME280;53689;56.878;60.672;2023-05-02T06:53:05;98714.28;;;22.38;23.73
62524;BME280;53689;56.878;60.672;2023-05-02T06:55:34;98712.19;;;22.33;24.25
62524;BME280;53689;56.878;60.672;2023-05-02T06:58:01;98705.06;;;22.25;24.13
62524;BME280;53689;56.878;60.672;2023-05-02T07:00:29;98713.28;;;22.39;23.60
62524;BME280;53689;56.878;60.672;2023-05-02T07:02:57;98708.22;;;22.29;23.65
62524;BME280;53689;56.878;60.672;2023-05-02T07:05:25;98714.97;;;22.40;25.25
62524;BME280;53689;56.878;60.672;2023-05-02T07:07:52;98708.22;;;22.29;23.60
62524;BME280;53689;56.878;60.672;2023-05-02T07:10:20;98712.25;;;22.40;24.18
62524;BME280;53689;56.878;60.672;2023-05-02T07:12:47;98706.84;;;22.55;23.56
62524;BME280;53689;56.878;60.672;2023-05-02T07:15:14;98705.97;;;22.54;23.93
62524;BME280;53689;56.878;60.672;2023-05-02T07:17:41;98708.16;;;22.44;23.49
62524;BME280;53689;56.878;60.672;2023-05-02T07:20:10;98701.88;;;22.58;23.92
62524;BME280;53689;56.878;60.672;2023-05-02T07:22:37;98710.03;;;22.43;23.94
62524;BME280;53689;56.878;60.672;2023-05-02T07:25:05;98702.06;;;22.57;23.67
62524;BME280;53689;56.878;60.672;2023-05-02T07:27:32;98692.53;;;22.61;24.70
62524;BME280;53689;56.878;60.672;2023-05-02T07:30:01;98694.34;;;22.76;22.68
62524;BME280;53689;56.878;60.672;2023-05-02T07:32:30;98701.00;;;22.80;24.00
62524;BME280;53689;56.878;60.672;2023-05-02T07:34:57;98707.22;;;22.73;23.65
62524;BME280;53689;56.878;60.672;2023-05-02T07:37:30;98711.56;;;22.75;23.57
62524;BME280;53689;56.878;60.672;2023-05-02T07:40:00;98709.81;;;22.67;23.96
62524;BME280;53689;56.878;60.672;2023-05-02T07:42:28;98708.66;;;22.76;24.32
62524;BME280;53689;56.878;60.672;2023-05-02T07:44:56;98710.25;;;22.92;23.64
62524;BME280;53689;56.878;60.672;2023-05-02T07:47:24;98707.50;;;22.85;22.76
62524;BME280;53689;56.878;60.672;2023-05-02T07:49:51;98705.69;;;22.93;22.64
62524;BME280;53689;56.878;60.672;2023-05-02T07:52:19;98702.41;;;22.69;23.00
62524;BME280;53689;56.878;60.672;2023-05-02T07:54:48;98696.00;;;22.77;23.37
62524;BME280;53689;56.878;60.672;2023-05-02T07:57:15;98699.47;;;22.70;23.78
62524;BME280;53689;56.878;60.672;2023-05-02T07:59:42;98698.91;;;22.75;25.93
62524;BME280;53689;56.878;60.672;2023-05-02T08:02:10;98701.34;;;22.70;24.37
62524;BME280;53689;56.878;60.672;2023-05-02T08:04:38;98701.41;;;22.77;23.94
62524;BME280;53689;56.878;60.672;2023-05-02T08:07:06;98702.34;;;22.91;22.57
62524;BME280;53689;56.878;60.672;2023-05-02T08:09:33;98704.72;;;23.00;22.50
62524;BME280;53689;56.878;60.672;2023-05-02T08:12:02;98715.41;;;22.87;24.14
62524;BME280;53689;56.878;60.672;2023-05-02T08:14:29;98701.16;;;23.28;22.10
62524;BME280;53689;56.878;60.672;2023-05-02T08:16:57;98702.06;;;23.36;22.07
62524;BME280;53689;56.878;60.672;2023-05-02T08:19:24;98707.66;;;23.06;22.72
62524;BME280;53689;56.878;60.672;2023-05-02T08:21:52;98720.13;;;23.07;22.73
62524;BME280;53689;56.878;60.672;2023-05-02T08:24:19;98716.94;;;23.25;22.05
62524;BME280;53689;56.878;60.672;2023-05-02T08:26:46;98723.50;;;23.44;23.07
62524;BME280;53689;56.878;60.672;2023-05-02T08:29:15;98714.13;;;23.11;23.04
62524;BME280;53689;56.878;60.672;2023-05-02T08:31:42;98700.63;;;23.40;21.87
62524;BME280;53689;56.878;60.672;2023-05-02T08:34:09;98698.31;;;23.37;22.33
62524;BME280;53689;56.878;60.672;2023-05-02T08:36:37;98697.38;;;23.23;23.69
62524;BME280;53689;56.878;60.672;2023-05-02T08:39:04;98702.59;;;23.60;22.77
62524;BME280;53689;56.878;60.672;2023-05-02T08:41:31;98706.13;;;23.25;23.10
62524;BME280;53689;56.878;60.672;2023-05-02T08:43:58;98700.66;;;23.18;23.69
62524;BME280;53689;56.878;60.672;2023-05-02T08:46:27;98700.88;;;23.17;22.60
62524;BME280;53689;56.878;60.672;2023-05-02T08:48:54;98708.16;;;22.88;24.86
62524;BME280;53689;56.878;60.672;2023-05-02T08:51:22;98713.91;;;23.06;23.82
62524;BME280;53689;56.878;60.672;2023-05-02T08:53:51;98699.69;;;23.26;23.19
62524;BME280;53689;56.878;60.672;2023-05-02T08:56:18;98705.66;;;23.14;24.17
62524;BME280;53689;56.878;60.672;2023-05-02T08:58:45;98707.69;;;23.12;23.84
62524;BME280;53689;56.878;60.672;2023-05-02T09:01:14;98698.09;;;23.32;23.60
62524;BME280;53689;56.878;60.672;2023-05-02T09:03:43;98700.28;;;23.21;24.32
62524;BME280;53689;56.878;60.672;2023-05-02T09:06:12;98710.53;;;23.04;23.93
62524;BME280;53689;56.878;60.672;2023-05-02T09:08:39;98699.59;;;23.12;24.24
62524;BME280;53689;56.878;60.672;2023-05-02T09:11:07;98701.81;;;23.02;24.32
62524;BME280;53689;56.878;60.672;2023-05-02T09:13:35;98697.44;;;23.01;24.35
62524;BME280;53689;56.878;60.672;2023-05-02T09:16:04;98701.63;;;23.04;24.49
62524;BME280;53689;56.878;60.672;2023-05-02T09:18:32;98692.63;;;22.96;25.51
62524;BME280;53689;56.878;60.672;2023-05-02T09:21:03;98694.50;;;22.96;24.85
62524;BME280;53689;56.878;60.672;2023-05-02T09:23:31;98681.94;;;23.10;24.87
62524;BME280;53689;56.878;60.672;2023-05-02T09:25:59;98698.66;;;22.98;24.71
62524;BME280;53689;56.878;60.672;2023-05-02T09:28:37;98688.94;;;23.33;23.17
62524;BME280;53689;56.878;60.672;2023-05-02T09:31:05;98693.41;;;23.19;23.37
62524;BME280;53689;56.878;60.672;2023-05-02T09:33:33;98688.41;;;23.16;24.09
62524;BME280;53689;56.878;60.672;2023-05-02T09:36:01;98685.16;;;23.27;23.21
62524;BME280;53689;56.878;60.672;2023-05-02T09:38:28;98696.06;;;23.40;23.26
62524;BME280;53689;56.878;60.672;2023-05-02T09:40:56;98702.81;;;23.65;23.71
62524;BME280;53689;56.878;60.672;2023-05-02T09:43:24;98697.09;;;23.88;23.07
62524;BME280;53689;56.878;60.672;2023-05-02T09:46:01;98693.16;;;23.91;22.92
62524;BME280;53689;56.878;60.672;2023-05-02T09:48:29;98698.59;;;23.97;23.91
62524;BME280;53689;56.878;60.672;2023-05-02T09:50:56;98697.69;;;23.77;23.36
62524;BME280;53689;56.878;60.672;2023-05-02T09:53:25;98697.97;;;23.47;23.62
62524;BME280;53689;56.878;60.672;2023-05-02T09:56:00;98688.06;;;23.61;23.02
62524;BME280;53689;56.878;60.672;2023-05-02T09:58:29;98687.13;;;23.82;23.42
62524;BME280;53689;56.878;60.672;2023-05-02T10:00:57;98678.44;;;23.45;23.17
62524;BME280;53689;56.878;60.672;2023-05-02T10:03:24;98679.31;;;23.59;23.59
62524;BME280;53689;56.878;60.672;2023-05-02T10:05:53;98678.13;;;23.68;22.98
62524;BME280;53689;56.878;60.672;2023-05-02T10:08:21;98673.19;;;23.85;23.01
62524;BME280;53689;56.878;60.672;2023-05-02T10:10:51;98685.38;;;23.67;25.46
62524;BME280;53689;56.878;60.672;2023-05-02T10:13:19;98678.50;;;23.65;24.99
62524;BME280;53689;56.878;60.672;2023-05-02T10:15:48;98679.03;;;23.95;23.85
62524;BME280;53689;56.878;60.672;2023-05-02T10:18:19;98680.88;;;23.88;22.99
62524;BME280;53689;56.878;60.672;2023-05-02T10:20:54;98688.09;;;23.67;23.21
62524;BME280;53689;56.878;60.672;2023-05-02T10:23:24;98694.13;;;23.69;23.42
62524;BME280;53689;56.878;60.672;2023-05-02T10:25:53;98693.50;;;23.67;23.43
62524;BME280;53689;56.878;60.672;2023-05-02T10:28:22;98688.75;;;23.76;23.20
62524;BME280;53689;56.878;60.672;2023-05-02T10:30:49;98685.28;;;23.96;23.09
62524;BME280;53689;56.878;60.672;2023-05-02T10:33:16;98675.69;;;23.93;23.07
62524;BME280;53689;56.878;60.672;2023-05-02T10:35:44;98671.03;;;24.22;22.64
62524;BME280;53689;56.878;60.672;2023-05-02T10:38:12;98664.03;;;23.86;22.62
62524;BME280;53689;56.878;60.672;2023-05-02T10:40:39;98664.81;;;23.80;22.89
62524;BME280;53689;56.878;60.672;2023-05-02T10:43:09;98664.16;;;24.27;21.91
62524;BME280;53689;56.878;60.672;2023-05-02T10:45:39;98656.16;;;23.91;22.46
62524;BME280;53689;56.878;60.672;2023-05-02T10:48:13;98654.69;;;23.95;23.74
62524;BME280;53689;56.878;60.672;2023-05-02T10:50:44;98652.28;;;24.14;22.43
62524;BME280;53689;56.878;60.672;2023-05-02T10:53:24;98662.81;;;24.02;22.97
62524;BME280;53689;56.878;60.672;2023-05-02T10:56:11;98652.63;;;23.97;23.33
62524;BME280;53689;56.878;60.672;2023-05-02T10:58:41;98644.06;;;23.94;23.57
62524;BME280;53689;56.878;60.672;2023-05-02T11:03:55;98645.72;;;23.81;23.44
62524;BME280;53689;56.878;60.672;2023-05-02T11:06:22;98647.19;;;23.84;23.39
62524;BME280;53689;56.878;60.672;2023-05-02T11:08:50;98646.25;;;24.12;23.17
62524;BME280;53689;56.878;60.672;2023-05-02T11:14:05;98644.34;;;24.13;22.61
62524;BME280;53689;56.878;60.672;2023-05-02T11:19:18;98629.81;;;24.20;23.00
62524;BME280;53689;56.878;60.672;2023-05-02T11:21:45;98637.94;;;24.20;22.78
62524;BME280;53689;56.878;60.672;2023-05-02T11:29:53;98621.28;;;24.10;22.76
62524;BME280;53689;56.878;60.672;2023-05-02T11:32:21;98627.03;;;23.93;22.80
62524;BME280;53689;56.878;60.672;2023-05-02T11:34:48;98623.78;;;24.25;22.94
62524;BME280;53689;56.878;60.672;2023-05-02T11:37:16;98625.44;;;24.39;21.58
62524;BME280;53689;56.878;60.672;2023-05-02T11:39:43;98623.13;;;24.16;22.37
62524;BME280;53689;56.878;60.672;2023-05-02T11:42:10;98623.78;;;24.25;21.85
62524;BME280;53689;56.878;60.672;2023-05-02T11:44:56;98627.50;;;24.10;22.96
62524;BME280;53689;56.878;60.672;2023-05-02T11:47:24;98626.25;;;24.20;21.85
62524;BME280;53689;56.878;60.672;2023-05-02T11:49:53;98630.66;;;24.34;21.57
62524;BME280;53689;56.878;60.672;2023-05-02T11:52:20;98625.88;;;24.43;22.26
62524;BME280;53689;56.878;60.672;2023-05-02T11:54:47;98617.75;;;24.57;21.63
62524;BME280;53689;56.878;60.672;2023-05-02T11:57:15;98621.28;;;24.23;22.48
62524;BME280;53689;56.878;60.672;2023-05-02T11:59:48;98625.44;;;24.19;22.55
62524;BME280;53689;56.878;60.672;2023-05-02T12:02:18;98623.78;;;24.32;22.17
62524;BME280;53689;56.878;60.672;2023-05-02T12:04:46;98615.88;;;24.30;21.63
62524;BME280;53689;56.878;60.672;2023-05-02T12:07:13;98606.31;;;24.41;22.53
62524;BME280;53689;56.878;60.672;2023-05-02T12:09:49;98610.22;;;24.72;21.76
62524;BME280;53689;56.878;60.672;2023-05-02T12:12:18;98612.97;;;24.86;20.84
62524;BME280;53689;56.878;60.672;2023-05-02T12:14:45;98606.47;;;24.73;21.28
62524;BME280;53689;56.878;60.672;2023-05-02T12:17:13;98609.19;;;24.73;21.92
62524;BME280;53689;56.878;60.672;2023-05-02T12:19:41;98612.50;;;24.75;20.99
62524;BME280;53689;56.878;60.672;2023-05-02T12:22:09;98609.13;;;25.20;21.10
62524;BME280;53689;56.878;60.672;2023-05-02T12:24:36;98606.66;;;24.99;20.75
62524;BME280;53689;56.878;60.672;2023-05-02T12:27:08;98607.31;;;25.01;20.78
62524;BME280;53689;56.878;60.672;2023-05-02T12:29:39;98603.75;;;25.14;20.35
62524;BME280;53689;56.878;60.672;2023-05-02T12:32:06;98610.19;;;25.13;21.37
62524;BME280;53689;56.878;60.672;2023-05-02T12:34:33;98605.91;;;25.44;20.62
62524;BME280;53689;56.878;60.672;2023-05-02T12:37:02;98605.06;;;25.50;19.66
62524;BME280;53689;56.878;60.672;2023-05-02T12:39:33;98601.94;;;25.53;19.77
62524;BME280;53689;56.878;60.672;2023-05-02T12:42:08;98609.56;;;25.11;20.49
62524;BME280;53689;56.878;60.672;2023-05-02T12:44:36;98601.31;;;25.58;20.17
62524;BME280;53689;56.878;60.672;2023-05-02T12:47:03;98594.56;;;25.15;20.46
62524;BME280;53689;56.878;60.672;2023-05-02T12:49:30;98609.41;;;24.85;21.30
62524;BME280;53689;56.878;60.672;2023-05-02T12:51:57;98601.72;;;24.89;20.54
62524;BME280;53689;56.878;60.672;2023-05-02T12:54:26;98602.25;;;25.18;20.10
62524;BME280;53689;56.878;60.672;2023-05-02T12:56:53;98594.56;;;25.15;20.80
62524;BME280;53689;56.878;60.672;2023-05-02T12:59:26;98602.59;;;25.35;20.20
62524;BME280;53689;56.878;60.672;2023-05-02T13:01:53;98589.69;;;25.30;19.88
62524;BME280;53689;56.878;60.672;2023-05-02T13:04:20;98589.00;;;25.42;19.97
62524;BME280;53689;56.878;60.672;2023-05-02T13:06:48;98587.69;;;25.65;19.65
62524;BME280;53689;56.878;60.672;2023-05-02T13:09:15;98587.94;;;25.56;20.27
62524;BME280;53689;56.878;60.672;2023-05-02T13:11:44;98591.25;;;24.99;20.57
62524;BME280;53689;56.878;60.672;2023-05-02T13:14:11;98583.78;;;25.47;19.71